Time;durP1;ratioP1;P1;durP2;ratioP2;P2;SDS_P1;SDS_P2;PMS_P1;PMS_P2;Temp;Humidity;BMP_temperature;BMP_pressure;BME280_temperature;BME280_humidity;BME280_pressure;Samples;Min_cycle;Max_cycle;Signal;HPM_P1;HPM_P2
2022/01/16 00:00:19;;;;;;;136.70;68.07;;;;;;;;;;5070237;28;20090;-53
2022/01/16 00:05:23;;;;;;;143.13;69.90;;;;;;;;;;5069975;28;20024;-54
2022/01/16 00:07:50;;;;;;;138.82;70.18;;;;;;;;;;5070045;28;20536;-54
2022/01/16 00:10:19;;;;;;;143.20;71.85;;;;;;;;;;5070132;28;20059;-53
2022/01/16 00:12:48;;;;;;;146.57;72.32;;;;;;;;;;5070127;28;20189;-53
2022/01/16 00:15:18;;;;;;;143.30;70.97;;;;;;;;;;5069903;28;20044;-54
2022/01/16 00:20:29;;;;;;;147.98;73.55;;;;;;;;;;5069934;28;20082;-54
2022/01/16 00:22:56;;;;;;;152.98;73.45;;;;;;;;;;5069753;28;20028;-53
2022/01/16 00:25:22;;;;;;;146.95;73.63;;;;;;;;;;5070165;28;20043;-54
2022/01/16 00:27:49;;;;;;;140.30;71.75;;;;;;;;;;5069520;28;20155;-54
2022/01/16 00:30:15;;;;;;;145.77;71.03;;;;;;;;;;5069616;28;20481;-53
2022/01/16 00:32:42;;;;;;;140.27;70.78;;;;;;;;;;5069684;28;20466;-53
2022/01/16 00:35:08;;;;;;;140.70;70.63;;;;;;;;;;5069389;28;20052;-54
2022/01/16 00:37:34;;;;;;;140.27;67.93;;;;;;;;;;5069223;28;20102;-53
2022/01/16 00:40:00;;;;;;;143.40;70.18;;;;;;;;;;5069391;28;20548;-54
2022/01/16 00:42:26;;;;;;;140.80;69.57;;;;;;;;;;5081857;28;20024;-54
2022/01/16 00:44:55;;;;;;;140.57;70.88;;;;;;;;;;5094150;28;20028;-54
2022/01/16 00:47:23;;;;;;;150.38;72.60;;;;;;;;;;5094200;28;20017;-54
2022/01/16 00:49:49;;;;;;;193.43;81.53;;;;;;;;;;5094393;28;20051;-54
2022/01/16 00:52:15;;;;;;;189.52;81.03;;;;;;;;;;5094146;28;20028;-53
2022/01/16 00:54:42;;;;;;;180.80;81.13;;;;;;;;;;5094019;28;20107;-54
2022/01/16 00:57:08;;;;;;;176.45;81.13;;;;;;;;;;5093879;28;20038;-53
2022/01/16 00:59:34;;;;;;;170.65;79.90;;;;;;;;;;5094004;28;20089;-55
2022/01/16 01:02:00;;;;;;;150.05;72.05;;;;;;;;;;5093983;28;20020;-54
2022/01/16 01:04:27;;;;;;;152.13;71.72;;;;;;;;;;5093876;28;20419;-53
2022/01/16 01:06:53;;;;;;;148.80;73.18;;;;;;;;;;5092486;28;20047;-54
2022/01/16 01:09:20;;;;;;;139.02;69.05;;;;;;;;;;5093848;28;20151;-55
2022/01/16 01:11:49;;;;;;;136.68;72.10;;;;;;;;;;5093893;28;20035;-53
2022/01/16 01:14:37;;;;;;;147.85;75.90;;;;;;;;;;5093785;28;20024;-54
2022/01/16 01:17:04;;;;;;;151.82;77.05;;;;;;;;;;5093668;28;20028;-53
2022/01/16 01:19:34;;;;;;;136.82;71.30;;;;;;;;;;5093807;28;20307;-54
2022/01/16 01:22:01;;;;;;;139.70;71.57;;;;;;;;;;5093712;28;20035;-54
2022/01/16 01:24:29;;;;;;;132.65;68.28;;;;;;;;;;5093692;28;20028;-54
2022/01/16 01:27:23;;;;;;;118.00;62.72;;;;;;;;;;5093479;28;20032;-54
2022/01/16 01:29:51;;;;;;;123.85;65.32;;;;;;;;;;5093238;28;20052;-54
2022/01/16 01:32:17;;;;;;;126.95;62.55;;;;;;;;;;5093494;28;20393;-54
2022/01/16 01:34:43;;;;;;;132.80;66.43;;;;;;;;;;5093432;28;20047;-54
2022/01/16 01:37:09;;;;;;;121.18;63.33;;;;;;;;;;5093537;28;20012;-53
2022/01/16 01:39:38;;;;;;;119.05;62.90;;;;;;;;;;5093448;28;20024;-54
2022/01/16 01:42:08;;;;;;;115.30;62.42;;;;;;;;;;5093445;28;20037;-53
2022/01/16 01:52:50;;;;;;;113.05;60.63;;;;;;;;;;5093415;28;20040;-53
2022/01/16 01:55:16;;;;;;;120.45;63.45;;;;;;;;;;5093129;28;20034;-53
2022/01/16 01:57:42;;;;;;;110.53;61.78;;;;;;;;;;5093111;28;20020;-54
2022/01/16 02:00:08;;;;;;;115.60;60.83;;;;;;;;;;5093217;28;20038;-55
2022/01/16 02:02:51;;;;;;;111.20;58.17;;;;;;;;;;5093187;28;20363;-54
2022/01/16 02:05:18;;;;;;;103.45;56.40;;;;;;;;;;5093045;28;20489;-54
2022/01/16 02:07:44;;;;;;;105.10;55.03;;;;;;;;;;5093109;28;20557;-54
2022/01/16 02:10:10;;;;;;;114.45;60.80;;;;;;;;;;5093092;28;20064;-55
2022/01/16 02:12:40;;;;;;;112.70;58.35;;;;;;;;;;5093134;28;20523;-54
2022/01/16 02:15:31;;;;;;;104.13;54.92;;;;;;;;;;5092912;28;20040;-54
2022/01/16 02:31:59;;;;;;;129.57;64.30;;;;;;;;;;5096881;28;20086;-54
2022/01/16 02:34:35;;;;;;;123.95;61.97;;;;;;;;;;5096659;28;20055;-54
2022/01/16 02:37:06;;;;;;;117.65;63.45;;;;;;;;;;5097001;28;20031;-54
2022/01/16 02:39:39;;;;;;;102.53;56.28;;;;;;;;;;5095484;28;20489;-53
2022/01/16 02:42:06;;;;;;;111.28;57.33;;;;;;;;;;5096549;28;20498;-53
2022/01/16 02:44:42;;;;;;;101.18;54.15;;;;;;;;;;5096661;28;20036;-53
2022/01/16 02:47:11;;;;;;;97.18;52.42;;;;;;;;;;5094873;28;20401;-56
2022/01/16 02:49:40;;;;;;;105.15;53.53;;;;;;;;;;5096498;28;20101;-55
2022/01/16 02:52:11;;;;;;;98.35;52.17;;;;;;;;;;5096454;28;20051;-55
2022/01/16 02:54:39;;;;;;;105.65;55.10;;;;;;;;;;5096401;28;20043;-53
2022/01/16 02:57:06;;;;;;;98.93;53.90;;;;;;;;;;5096153;28;20054;-53
2022/01/16 02:59:36;;;;;;;104.30;54.05;;;;;;;;;;5096434;28;20140;-54
2022/01/16 03:02:02;;;;;;;104.20;51.50;;;;;;;;;;5096299;28;20098;-54
2022/01/16 03:04:31;;;;;;;98.47;52.60;;;;;;;;;;5096325;28;20020;-53
2022/01/16 03:06:59;;;;;;;103.13;55.22;;;;;;;;;;5096202;28;20020;-53
2022/01/16 03:09:30;;;;;;;105.32;54.55;;;;;;;;;;5096211;28;20051;-53
2022/01/16 03:11:56;;;;;;;97.38;50.03;;;;;;;;;;5095935;28;20107;-55
2022/01/16 03:14:22;;;;;;;95.03;48.00;;;;;;;;;;5095892;28;20466;-54
2022/01/16 03:16:52;;;;;;;92.32;46.60;;;;;;;;;;5095971;28;20077;-54
2022/01/16 03:22:04;;;;;;;92.70;46.08;;;;;;;;;;5096213;28;20214;-54
2022/01/16 03:24:30;;;;;;;84.07;43.40;;;;;;;;;;5095813;28;20073;-54
2022/01/16 03:26:58;;;;;;;91.80;45.70;;;;;;;;;;5095601;28;20051;-55
2022/01/16 03:29:27;;;;;;;86.40;45.88;;;;;;;;;;5094952;28;20049;-54
2022/01/16 03:31:54;;;;;;;85.15;45.42;;;;;;;;;;5095574;28;20031;-55
2022/01/16 03:34:20;;;;;;;88.93;49.63;;;;;;;;;;5095623;28;20031;-54
2022/01/16 03:36:47;;;;;;;102.07;50.60;;;;;;;;;;5095577;28;20115;-54
2022/01/16 03:39:13;;;;;;;99.30;51.72;;;;;;;;;;5095563;28;20027;-54
2022/01/16 03:41:39;;;;;;;86.47;49.33;;;;;;;;;;5095524;28;20503;-57
2022/01/16 03:44:06;;;;;;;97.70;51.25;;;;;;;;;;5095743;28;20054;-59
2022/01/16 03:46:36;;;;;;;87.78;48.13;;;;;;;;;;5095586;28;20028;-58
2022/01/16 03:49:04;;;;;;;91.60;47.55;;;;;;;;;;5095855;28;20024;-57
2022/01/16 03:51:31;;;;;;;81.75;45.42;;;;;;;;;;5095505;28;20028;-57
2022/01/16 03:53:57;;;;;;;81.28;44.25;;;;;;;;;;5095349;28;20536;-57
2022/01/16 03:56:26;;;;;;;78.55;43.45;;;;;;;;;;5095257;28;20067;-55
2022/01/16 03:58:52;;;;;;;77.90;44.20;;;;;;;;;;5093950;28;20462;-54
2022/01/16 04:01:21;;;;;;;71.30;40.70;;;;;;;;;;5095237;28;20024;-58
2022/01/16 04:03:47;;;;;;;72.80;40.90;;;;;;;;;;5095265;28;20489;-57
2022/01/16 04:06:14;;;;;;;73.43;40.67;;;;;;;;;;5095265;28;20028;-57
2022/01/16 04:08:40;;;;;;;69.78;38.58;;;;;;;;;;5095120;28;20451;-54
2022/01/16 04:11:07;;;;;;;71.57;40.72;;;;;;;;;;5095146;28;20039;-55
2022/01/16 04:13:33;;;;;;;72.50;40.97;;;;;;;;;;5095029;28;20020;-57
2022/01/16 04:15:59;;;;;;;74.55;39.83;;;;;;;;;;5094901;28;20032;-55
2022/01/16 04:18:25;;;;;;;67.40;39.33;;;;;;;;;;5094936;28;20020;-58
2022/01/16 04:20:54;;;;;;;69.30;40.60;;;;;;;;;;5094695;28;20496;-58
2022/01/16 04:23:22;;;;;;;70.03;40.10;;;;;;;;;;5094728;28;20403;-57
2022/01/16 04:25:48;;;;;;;70.13;41.53;;;;;;;;;;5094407;28;20081;-58
2022/01/16 04:28:14;;;;;;;72.30;42.50;;;;;;;;;;5094492;28;20097;-56
2022/01/16 04:30:40;;;;;;;71.30;42.38;;;;;;;;;;5094773;28;20457;-55
2022/01/16 04:33:06;;;;;;;79.63;43.92;;;;;;;;;;5094637;28;20024;-55
2022/01/16 04:35:33;;;;;;;77.25;43.67;;;;;;;;;;5094525;28;20036;-55
2022/01/16 04:37:59;;;;;;;82.93;43.38;;;;;;;;;;5094410;28;20385;-56
2022/01/16 04:40:25;;;;;;;80.80;44.90;;;;;;;;;;5094499;28;20028;-55
2022/01/16 04:45:35;;;;;;;77.03;42.70;;;;;;;;;;5094402;28;20038;-57
2022/01/16 04:48:03;;;;;;;78.65;44.88;;;;;;;;;;5094400;28;20024;-56
2022/01/16 04:50:29;;;;;;;81.75;46.80;;;;;;;;;;5094398;28;20032;-55
2022/01/16 04:52:55;;;;;;;79.55;46.33;;;;;;;;;;5094195;28;20028;-55
2022/01/16 04:55:24;;;;;;;89.57;48.50;;;;;;;;;;5094002;28;20474;-56
2022/01/16 04:57:50;;;;;;;88.90;47.80;;;;;;;;;;5093920;28;20466;-55
2022/01/16 05:00:16;;;;;;;92.70;49.28;;;;;;;;;;5093903;28;20099;-55
2022/01/16 05:02:43;;;;;;;93.03;50.80;;;;;;;;;;5094042;28;20379;-55
2022/01/16 05:05:09;;;;;;;115.20;56.58;;;;;;;;;;5094018;28;20070;-56
2022/01/16 05:07:35;;;;;;;126.95;67.25;;;;;;;;;;5093981;28;20465;-56
2022/01/16 05:10:01;;;;;;;129.32;69.20;;;;;;;;;;5093848;28;20032;-54
2022/01/16 05:12:34;;;;;;;193.80;97.03;;;;;;;;;;5094085;28;20028;-57
2022/01/16 05:17:45;;;;;;;223.63;87.03;;;;;;;;;;5093798;28;20035;-55
2022/01/16 05:20:12;;;;;;;265.63;95.03;;;;;;;;;;5093764;28;20026;-54
2022/01/16 05:22:40;;;;;;;213.45;79.50;;;;;;;;;;5093598;28;20038;-56
2022/01/16 05:25:11;;;;;;;175.98;69.35;;;;;;;;;;5093475;28;20119;-55
2022/01/16 05:27:38;;;;;;;171.23;64.70;;;;;;;;;;5093406;28;20052;-54
2022/01/16 05:30:04;;;;;;;108.00;47.20;;;;;;;;;;5093712;28;20035;-55
2022/01/16 05:32:30;;;;;;;89.15;43.88;;;;;;;;;;5093594;28;20026;-56
2022/01/16 05:34:56;;;;;;;78.25;42.13;;;;;;;;;;5093398;28;20454;-55
2022/01/16 05:37:23;;;;;;;77.57;41.60;;;;;;;;;;5093405;28;20055;-55
2022/01/16 05:39:49;;;;;;;85.50;44.30;;;;;;;;;;5093266;28;20111;-55
2022/01/16 05:42:15;;;;;;;80.55;41.75;;;;;;;;;;5093575;28;20099;-54
2022/01/16 05:44:41;;;;;;;84.60;42.50;;;;;;;;;;5093365;28;20016;-53
2022/01/16 05:47:12;;;;;;;79.43;42.45;;;;;;;;;;5093401;28;20024;-56
2022/01/16 05:49:39;;;;;;;72.22;39.13;;;;;;;;;;5093352;28;20099;-56
2022/01/16 05:52:06;;;;;;;75.50;41.33;;;;;;;;;;5093102;28;20493;-55
2022/01/16 05:54:32;;;;;;;73.40;39.35;;;;;;;;;;5092814;28;20461;-56
2022/01/16 05:56:58;;;;;;;81.75;43.72;;;;;;;;;;5091802;28;20455;-55
2022/01/16 05:59:24;;;;;;;84.57;45.38;;;;;;;;;;5093294;28;20047;-55
2022/01/16 06:01:50;;;;;;;92.38;46.47;;;;;;;;;;5093159;28;20028;-54
2022/01/16 06:04:16;;;;;;;96.93;50.15;;;;;;;;;;5093211;28;20031;-56
2022/01/16 06:06:42;;;;;;;120.70;61.92;;;;;;;;;;5093136;28;20047;-56
2022/01/16 06:09:10;;;;;;;124.50;65.43;;;;;;;;;;5093227;28;20013;-54
2022/01/16 06:11:37;;;;;;;172.88;87.32;;;;;;;;;;5093169;28;20020;-54
2022/01/16 06:14:03;;;;;;;191.05;99.18;;;;;;;;;;5093168;28;20482;-54
2022/01/16 06:16:31;;;;;;;205.35;106.63;;;;;;;;;;5093194;28;20040;-55
2022/01/16 06:18:57;;;;;;;195.93;101.32;;;;;;;;;;5092976;28;20017;-55
2022/01/16 06:21:23;;;;;;;182.93;95.63;;;;;;;;;;5092934;28;20028;-54
2022/01/16 06:23:49;;;;;;;194.60;100.78;;;;;;;;;;5092959;28;20099;-54
2022/01/16 06:26:15;;;;;;;176.18;99.97;;;;;;;;;;5092953;28;20108;-54
2022/01/16 06:28:41;;;;;;;174.90;92.95;;;;;;;;;;5092840;28;20048;-55
2022/01/16 06:31:08;;;;;;;172.23;96.07;;;;;;;;;;5092852;28;20108;-54
2022/01/16 06:33:34;;;;;;;198.82;109.07;;;;;;;;;;5092833;28;20032;-54
2022/01/16 06:36:01;;;;;;;242.23;130.30;;;;;;;;;;5092686;28;20478;-53
2022/01/16 06:38:28;;;;;;;234.25;130.93;;;;;;;;;;5092650;28;20024;-55
2022/01/16 06:40:54;;;;;;;204.18;114.32;;;;;;;;;;5092826;28;20096;-53
2022/01/16 06:43:20;;;;;;;180.52;103.53;;;;;;;;;;5091201;28;20406;-55
2022/01/16 06:45:46;;;;;;;171.88;97.60;;;;;;;;;;5092797;28;20020;-56
2022/01/16 06:48:13;;;;;;;156.10;84.82;;;;;;;;;;5092759;28;20498;-55
2022/01/16 06:50:39;;;;;;;154.30;82.00;;;;;;;;;;5092701;28;20028;-55
2022/01/16 06:53:05;;;;;;;155.02;84.28;;;;;;;;;;5092501;28;20099;-55
2022/01/16 06:55:35;;;;;;;217.00;111.82;;;;;;;;;;5092615;28;20047;-55
2022/01/16 06:58:04;;;;;;;229.35;123.85;;;;;;;;;;5092477;28;20497;-54
2022/01/16 07:00:32;;;;;;;208.27;115.85;;;;;;;;;;5092733;28;20035;-55
2022/01/16 07:02:58;;;;;;;194.80;104.53;;;;;;;;;;5092653;28;20016;-55
2022/01/16 07:05:24;;;;;;;183.25;103.57;;;;;;;;;;5094886;28;20115;-55
2022/01/16 07:07:51;;;;;;;174.70;100.38;;;;;;;;;;5095560;28;20448;-54
2022/01/16 07:10:18;;;;;;;170.02;97.82;;;;;;;;;;5095612;28;20020;-55
2022/01/16 07:12:46;;;;;;;182.15;100.15;;;;;;;;;;5095727;28;20355;-55
2022/01/16 07:15:12;;;;;;;183.68;103.63;;;;;;;;;;5095434;28;20068;-57
2022/01/16 07:17:38;;;;;;;173.88;96.82;;;;;;;;;;5095521;28;20012;-55
2022/01/16 07:20:05;;;;;;;178.73;101.60;;;;;;;;;;5095475;28;20492;-54
2022/01/16 07:22:31;;;;;;;160.20;90.97;;;;;;;;;;5095399;28;20099;-54
2022/01/16 07:24:57;;;;;;;156.63;90.90;;;;;;;;;;5095196;28;20367;-55
2022/01/16 07:27:23;;;;;;;178.18;94.88;;;;;;;;;;5094157;28;20025;-51
2022/01/16 07:29:49;;;;;;;249.35;125.18;;;;;;;;;;5094374;28;20421;-52
2022/01/16 07:32:17;;;;;;;325.48;155.02;;;;;;;;;;5094289;28;20020;-55
2022/01/16 07:34:43;;;;;;;345.08;175.27;;;;;;;;;;5094237;28;20009;-55
2022/01/16 07:37:12;;;;;;;377.85;196.85;;;;;;;;;;5093961;28;20067;-56
2022/01/16 07:39:38;;;;;;;348.98;176.65;;;;;;;;;;5094107;28;20482;-54
2022/01/16 07:42:05;;;;;;;313.60;168.27;;;;;;;;;;5094097;28;20020;-55
2022/01/16 07:44:31;;;;;;;266.38;139.35;;;;;;;;;;5094201;28;20414;-54
2022/01/16 07:46:57;;;;;;;243.57;130.52;;;;;;;;;;5094112;28;20478;-55
2022/01/16 07:49:23;;;;;;;247.40;131.43;;;;;;;;;;5094039;28;20115;-55
2022/01/16 07:51:49;;;;;;;258.40;141.27;;;;;;;;;;5094741;28;20390;-55
2022/01/16 07:54:15;;;;;;;251.52;137.02;;;;;;;;;;5095323;28;20020;-55
2022/01/16 07:56:41;;;;;;;236.90;135.38;;;;;;;;;;5095057;28;20478;-54
2022/01/16 07:59:08;;;;;;;236.70;130.75;;;;;;;;;;5095274;28;20417;-55
2022/01/16 08:01:34;;;;;;;242.57;138.02;;;;;;;;;;5095151;28;20051;-53
2022/01/16 08:04:00;;;;;;;241.60;132.60;;;;;;;;;;5095535;28;20104;-55
2022/01/16 08:06:26;;;;;;;226.82;127.90;;;;;;;;;;5094827;28;20470;-53
2022/01/16 08:08:52;;;;;;;205.73;121.95;;;;;;;;;;5094993;28;20020;-55
2022/01/16 08:11:18;;;;;;;194.48;113.15;;;;;;;;;;5095028;28;20024;-53
2022/01/16 08:13:44;;;;;;;203.50;123.20;;;;;;;;;;5094849;28;20023;-53
2022/01/16 08:16:10;;;;;;;200.18;120.53;;;;;;;;;;5094213;28;20032;-52
2022/01/16 08:18:37;;;;;;;180.63;110.03;;;;;;;;;;5094800;28;20397;-53
2022/01/16 08:21:03;;;;;;;220.98;120.38;;;;;;;;;;5094692;28;20385;-55
2022/01/16 08:23:29;;;;;;;226.18;124.45;;;;;;;;;;5094551;28;20024;-52
2022/01/16 08:25:55;;;;;;;263.77;135.93;;;;;;;;;;5094760;28;20024;-53
2022/01/16 08:28:21;;;;;;;290.02;150.65;;;;;;;;;;5094562;28;20076;-52
2022/01/16 08:30:48;;;;;;;335.95;177.48;;;;;;;;;;5094577;28;20407;-53
2022/01/16 08:33:14;;;;;;;350.75;185.15;;;;;;;;;;5094488;28;20024;-52
2022/01/16 08:35:40;;;;;;;336.33;184.63;;;;;;;;;;5094355;28;20390;-54
2022/01/16 08:38:06;;;;;;;258.40;149.95;;;;;;;;;;5094101;28;20025;-52
2022/01/16 08:40:32;;;;;;;246.98;147.77;;;;;;;;;;5094096;28;20024;-54
2022/01/16 08:43:02;;;;;;;242.90;147.02;;;;;;;;;;5094136;28;20106;-53
2022/01/16 08:45:29;;;;;;;233.50;139.82;;;;;;;;;;5093931;28;20088;-53
2022/01/16 08:47:55;;;;;;;244.00;151.00;;;;;;;;;;5094523;28;20016;-53
2022/01/16 08:50:21;;;;;;;228.35;143.20;;;;;;;;;;5094141;28;20024;-54
2022/01/16 08:52:48;;;;;;;242.23;153.40;;;;;;;;;;5093873;28;20023;-53
2022/01/16 08:55:14;;;;;;;216.93;135.23;;;;;;;;;;5094149;28;20020;-56
2022/01/16 08:57:40;;;;;;;109.90;73.05;;;;;;;;;;5094110;28;20024;-53
2022/01/16 09:00:08;;;;;;;132.13;85.30;;;;;;;;;;5093795;28;20034;-54
2022/01/16 09:02:34;;;;;;;128.95;84.43;;;;;;;;;;5093969;28;20020;-57
2022/01/16 09:05:00;;;;;;;129.20;87.25;;;;;;;;;;5093915;28;20354;-53
2022/01/16 09:07:26;;;;;;;154.93;98.22;;;;;;;;;;5093806;28;20034;-53
2022/01/16 09:09:52;;;;;;;153.68;101.90;;;;;;;;;;5093678;28;20027;-54
2022/01/16 09:12:21;;;;;;;163.38;108.85;;;;;;;;;;5093884;28;20024;-54
2022/01/16 09:14:47;;;;;;;126.97;87.18;;;;;;;;;;5092382;28;20405;-55
2022/01/16 09:17:13;;;;;;;140.95;90.88;;;;;;;;;;5093689;28;20070;-53
2022/01/16 09:19:39;;;;;;;121.13;78.32;;;;;;;;;;5093660;28;20077;-46
2022/01/16 09:22:05;;;;;;;81.93;54.72;;;;;;;;;;5092293;28;20020;-49
2022/01/16 09:24:31;;;;;;;107.90;70.63;;;;;;;;;;5093518;28;20024;-53
2022/01/16 09:26:57;;;;;;;111.78;68.25;;;;;;;;;;5093248;28;20073;-54
2022/01/16 09:29:23;;;;;;;144.88;79.63;;;;;;;;;;5092561;28;20057;-55
2022/01/16 09:31:49;;;;;;;139.80;77.32;;;;;;;;;;5093494;28;20543;-52
2022/01/16 09:34:15;;;;;;;127.25;73.10;;;;;;;;;;5093514;28;20028;-46
2022/01/16 09:36:41;;;;;;;100.88;61.25;;;;;;;;;;5093202;28;20084;-47
2022/01/16 09:39:07;;;;;;;82.63;52.15;;;;;;;;;;5093228;28;20023;-48
2022/01/16 09:41:36;;;;;;;69.85;44.65;;;;;;;;;;5093262;28;20024;-46
2022/01/16 09:44:02;;;;;;;73.75;48.30;;;;;;;;;;5093202;28;20024;-47
2022/01/16 09:46:28;;;;;;;63.95;40.03;;;;;;;;;;5093357;28;20039;-45
2022/01/16 09:48:55;;;;;;;86.20;55.58;;;;;;;;;;5093225;28;20450;-46
2022/01/16 09:51:21;;;;;;;76.60;51.13;;;;;;;;;;5093298;28;20031;-46
2022/01/16 09:53:47;;;;;;;69.45;43.17;;;;;;;;;;5092551;28;20106;-46
2022/01/16 09:56:13;;;;;;;57.90;39.70;;;;;;;;;;5093094;28;20094;-46
2022/01/16 09:58:41;;;;;;;63.58;39.22;;;;;;;;;;5093171;28;20428;-47
2022/01/16 10:01:07;;;;;;;55.47;39.05;;;;;;;;;;5093092;28;20094;-47
2022/01/16 10:03:40;;;;;;;76.15;48.55;;;;;;;;;;5091875;28;20366;-46
2022/01/16 10:06:09;;;;;;;60.80;39.97;;;;;;;;;;5093178;28;20028;-46
2022/01/16 10:08:36;;;;;;;55.33;35.88;;;;;;;;;;5092974;28;20092;-49
2022/01/16 10:11:19;;;;;;;52.58;34.65;;;;;;;;;;5093101;28;20036;-48
2022/01/16 10:14:20;;;;;;;60.60;40.65;;;;;;;;;;5093007;28;20020;-46
2022/01/16 10:16:46;;;;;;;92.15;56.22;;;;;;;;;;5092677;28;20044;-46
2022/01/16 10:19:20;;;;;;;66.72;40.20;;;;;;;;;;5093045;28;20028;-46
2022/01/16 10:21:47;;;;;;;111.38;67.88;;;;;;;;;;5092942;28;20507;-47
2022/01/16 10:24:30;;;;;;;108.57;67.68;;;;;;;;;;5092885;28;20025;-45
2022/01/16 10:27:08;;;;;;;64.55;40.75;;;;;;;;;;5089778;28;20099;-52
2022/01/16 10:29:46;;;;;;;66.25;42.53;;;;;;;;;;5079577;28;20083;-48
2022/01/16 10:32:26;;;;;;;76.63;50.17;;;;;;;;;;5092832;28;20378;-48
2022/01/16 10:35:14;;;;;;;99.20;63.65;;;;;;;;;;5092605;28;20028;-50
2022/01/16 10:37:52;;;;;;;97.15;63.08;;;;;;;;;;5092500;28;20490;-49
2022/01/16 10:40:18;;;;;;;85.55;51.63;;;;;;;;;;5095113;28;20401;-51
2022/01/16 10:42:49;;;;;;;162.27;101.30;;;;;;;;;;5096609;28;20028;-48
2022/01/16 10:45:18;;;;;;;121.53;67.10;;;;;;;;;;5096263;28;20543;-46
2022/01/16 10:47:47;;;;;;;64.53;43.67;;;;;;;;;;5096304;28;20505;-57
2022/01/16 10:50:13;;;;;;;69.05;41.30;;;;;;;;;;5096016;28;20024;-58
2022/01/16 10:53:06;;;;;;;116.65;61.83;;;;;;;;;;5096233;28;20489;-58
2022/01/16 10:55:35;;;;;;;79.10;50.25;;;;;;;;;;5094046;28;20127;-61
2022/01/16 10:58:05;;;;;;;84.25;51.08;;;;;;;;;;5095678;28;20059;-60
2022/01/16 11:00:32;;;;;;;86.63;52.77;;;;;;;;;;5096026;28;20522;-57
2022/01/16 11:02:59;;;;;;;85.95;52.83;;;;;;;;;;5093068;28;20478;-58
2022/01/16 11:05:27;;;;;;;84.97;52.38;;;;;;;;;;5095564;28;20461;-60
2022/01/16 11:08:00;;;;;;;81.88;51.00;;;;;;;;;;5095145;28;20020;-60
2022/01/16 11:10:26;;;;;;;83.20;49.05;;;;;;;;;;5095394;28;20537;-50
2022/01/16 11:12:53;;;;;;;78.40;45.22;;;;;;;;;;5095345;28;20035;-47
2022/01/16 11:15:20;;;;;;;73.18;45.00;;;;;;;;;;5095944;28;20069;-46
2022/01/16 11:17:47;;;;;;;65.57;41.42;;;;;;;;;;5095868;28;20107;-47
2022/01/16 11:20:14;;;;;;;51.20;31.58;;;;;;;;;;5093965;28;20020;-47
2022/01/16 11:22:57;;;;;;;57.58;36.15;;;;;;;;;;5095202;28;20107;-48
2022/01/16 11:25:31;;;;;;;48.72;31.08;;;;;;;;;;5093445;28;20050;-46
2022/01/16 11:27:58;;;;;;;46.80;29.88;;;;;;;;;;5075235;28;20048;-45
2022/01/16 11:30:24;;;;;;;42.75;29.48;;;;;;;;;;5075416;28;20029;-45
2022/01/16 11:32:51;;;;;;;44.78;28.20;;;;;;;;;;5075432;28;20033;-45
2022/01/16 11:35:18;;;;;;;57.00;29.13;;;;;;;;;;5075358;28;20025;-45
2022/01/16 11:37:44;;;;;;;57.58;32.95;;;;;;;;;;5075445;28;20038;-48
2022/01/16 11:40:27;;;;;;;67.05;40.28;;;;;;;;;;5075319;28;20020;-45
2022/01/16 11:43:16;;;;;;;53.53;34.90;;;;;;;;;;5075284;28;20060;-46
2022/01/16 11:45:45;;;;;;;68.38;42.67;;;;;;;;;;5073034;28;20111;-47
2022/01/16 11:48:12;;;;;;;55.67;34.35;;;;;;;;;;5074983;28;20040;-46
2022/01/16 11:50:38;;;;;;;48.58;30.08;;;;;;;;;;5092277;28;20059;-50
2022/01/16 11:53:04;;;;;;;54.88;34.80;;;;;;;;;;5076090;28;20028;-48
2022/01/16 11:55:35;;;;;;;52.00;32.35;;;;;;;;;;5092963;28;20060;-50
2022/01/16 11:58:02;;;;;;;66.13;40.40;;;;;;;;;;5091492;28;20090;-46
2022/01/16 12:00:44;;;;;;;55.20;36.15;;;;;;;;;;5091641;28;20024;-49
2022/01/16 12:03:28;;;;;;;53.90;33.95;;;;;;;;;;5092085;28;20032;-46
2022/01/16 12:05:56;;;;;;;58.60;36.45;;;;;;;;;;5092185;28;20111;-46
2022/01/16 12:08:34;;;;;;;56.00;34.60;;;;;;;;;;5092047;28;20573;-47
2022/01/16 12:11:00;;;;;;;52.88;31.30;;;;;;;;;;5092748;28;20098;-51
2022/01/16 12:13:50;;;;;;;57.08;35.90;;;;;;;;;;5092459;28;20028;-48
2022/01/16 12:16:36;;;;;;;52.33;33.20;;;;;;;;;;5022377;28;20192;-50
2022/01/16 12:19:20;;;;;;;56.50;32.80;;;;;;;;;;5021809;28;20030;-46
2022/01/16 12:21:56;;;;;;;46.92;31.40;;;;;;;;;;5025199;28;20045;-48
2022/01/16 12:24:40;;;;;;;64.93;38.55;;;;;;;;;;5032081;28;20033;-54
2022/01/16 12:27:21;;;;;;;50.53;29.33;;;;;;;;;;5032038;28;20083;-52
2022/01/16 12:30:05;;;;;;;54.38;32.55;;;;;;;;;;5031621;28;20045;-45
2022/01/16 12:32:50;;;;;;;70.22;36.65;;;;;;;;;;5031616;28;20120;-48
2022/01/16 12:35:36;;;;;;;53.92;31.75;;;;;;;;;;5031834;28;20388;-54
2022/01/16 12:38:09;;;;;;;50.15;29.52;;;;;;;;;;5031127;28;20591;-47
2022/01/16 12:40:35;;;;;;;40.33;25.42;;;;;;;;;;5031578;28;20380;-48
2022/01/16 12:43:04;;;;;;;38.53;26.08;;;;;;;;;;5031402;28;20539;-51
2022/01/16 12:45:35;;;;;;;49.38;28.27;;;;;;;;;;5031612;28;20033;-50
2022/01/16 12:48:01;;;;;;;48.75;30.77;;;;;;;;;;5031504;28;20037;-46
2022/01/16 12:50:29;;;;;;;47.28;29.25;;;;;;;;;;5031462;28;20391;-45
2022/01/16 12:52:55;;;;;;;41.25;24.73;;;;;;;;;;5054227;28;20032;-56
2022/01/16 12:55:26;;;;;;;62.45;33.60;;;;;;;;;;5093656;28;20034;-53
2022/01/16 12:57:52;;;;;;;53.25;31.27;;;;;;;;;;5093590;28;20028;-49
2022/01/16 13:00:18;;;;;;;58.25;34.17;;;;;;;;;;5093949;28;20028;-47
2022/01/16 13:02:44;;;;;;;61.65;36.03;;;;;;;;;;5093184;28;20027;-57
2022/01/16 13:05:19;;;;;;;58.00;34.88;;;;;;;;;;5093525;28;20039;-47
2022/01/16 13:07:45;;;;;;;61.42;35.35;;;;;;;;;;5093290;28;20108;-53
2022/01/16 13:10:12;;;;;;;60.55;33.90;;;;;;;;;;5093370;28;20415;-46
2022/01/16 13:12:38;;;;;;;41.58;25.83;;;;;;;;;;5093481;28;20024;-47
2022/01/16 13:15:04;;;;;;;53.40;32.33;;;;;;;;;;5084363;28;20077;-50
2022/01/16 13:17:34;;;;;;;53.20;30.75;;;;;;;;;;5068530;28;20036;-50
2022/01/16 13:20:02;;;;;;;44.28;28.10;;;;;;;;;;5068214;28;20024;-48
2022/01/16 13:22:29;;;;;;;49.03;30.50;;;;;;;;;;5068203;28;20077;-46
2022/01/16 13:24:57;;;;;;;70.43;38.33;;;;;;;;;;5068423;28;20025;-51
2022/01/16 13:27:23;;;;;;;47.88;28.55;;;;;;;;;;5068484;28;20067;-52
2022/01/16 13:29:50;;;;;;;60.78;36.42;;;;;;;;;;5067977;28;20063;-55
2022/01/16 13:32:18;;;;;;;59.13;35.35;;;;;;;;;;5068308;28;20051;-54
2022/01/16 13:34:47;;;;;;;68.32;38.92;;;;;;;;;;5068123;28;20028;-49
2022/01/16 13:37:18;;;;;;;75.82;42.28;;;;;;;;;;5068139;28;20421;-48
2022/01/16 13:39:46;;;;;;;61.65;34.58;;;;;;;;;;5068191;28;20444;-52
2022/01/16 13:42:13;;;;;;;50.50;30.45;;;;;;;;;;5067967;28;20034;-51
2022/01/16 13:44:39;;;;;;;59.47;34.75;;;;;;;;;;5068076;28;20135;-53
2022/01/16 13:47:05;;;;;;;62.70;35.30;;;;;;;;;;5068276;28;20031;-50
2022/01/16 13:49:31;;;;;;;50.10;31.00;;;;;;;;;;5068325;28;20023;-50
2022/01/16 13:51:59;;;;;;;65.57;37.50;;;;;;;;;;5067845;28;20139;-46
2022/01/16 13:54:32;;;;;;;50.95;31.20;;;;;;;;;;5068072;28;20036;-48
2022/01/16 13:57:00;;;;;;;53.92;30.77;;;;;;;;;;5067557;28;20036;-47
2022/01/16 13:59:29;;;;;;;48.25;28.23;;;;;;;;;;5067672;28;20028;-47
2022/01/16 14:01:56;;;;;;;55.95;31.80;;;;;;;;;;5067946;28;20032;-48
2022/01/16 14:04:22;;;;;;;59.33;32.30;;;;;;;;;;5067930;28;20020;-50
2022/01/16 14:06:54;;;;;;;58.13;32.15;;;;;;;;;;5068048;28;20677;-50
2022/01/16 14:09:24;;;;;;;56.55;31.52;;;;;;;;;;5067760;28;20036;-50
2022/01/16 14:11:51;;;;;;;58.40;32.33;;;;;;;;;;5072021;28;20024;-50
2022/01/16 14:14:19;;;;;;;54.63;29.65;;;;;;;;;;5093898;28;20073;-52
2022/01/16 14:16:49;;;;;;;46.90;25.33;;;;;;;;;;5097162;28;20039;-47
2022/01/16 14:19:17;;;;;;;45.30;23.33;;;;;;;;;;5097191;28;20488;-47
2022/01/16 14:24:30;;;;;;;31.98;17.25;;;;;;;;;;5097077;28;20103;-49
2022/01/16 14:26:57;;;;;;;40.67;21.20;;;;;;;;;;5097279;28;20031;-46
2022/01/16 14:29:26;;;;;;;41.25;21.85;;;;;;;;;;5096775;28;20044;-46
2022/01/16 14:31:53;;;;;;;41.03;22.95;;;;;;;;;;5096922;28;20048;-51
2022/01/16 14:34:20;;;;;;;41.13;22.08;;;;;;;;;;5096843;28;20520;-52
2022/01/16 14:36:46;;;;;;;38.83;20.80;;;;;;;;;;5078644;28;20040;-47
2022/01/16 14:39:13;;;;;;;52.95;25.95;;;;;;;;;;5096776;28;20103;-51
2022/01/16 14:41:44;;;;;;;61.40;29.08;;;;;;;;;;5097106;28;20028;-56
2022/01/16 14:44:13;;;;;;;65.15;29.88;;;;;;;;;;5096733;28;20534;-53
2022/01/16 14:46:40;;;;;;;45.17;23.25;;;;;;;;;;5096730;28;20135;-54
2022/01/16 14:49:06;;;;;;;65.40;30.50;;;;;;;;;;5096601;28;20039;-56
2022/01/16 14:51:33;;;;;;;62.30;30.80;;;;;;;;;;5096242;28;20473;-55
2022/01/16 14:54:00;;;;;;;61.90;29.42;;;;;;;;;;5096153;28;20398;-53